sensor_id;sensor_type;location;lat;lon;timestamp;pressure;altitude;pressure_sealevel;temperature;humidity
10014;BME280;45684;48.358;10.746;2023-07-29T00:02:14;95901.75;;;17.83;100.00
10014;BME280;45684;48.358;10.746;2023-07-29T00:04:43;95897.78;;;17.80;100.00
10014;BME280;45684;48.358;10.746;2023-07-29T00:07:11;95900.91;;;17.79;100.00
10014;BME280;45684;48.358;10.746;2023-07-29T00:09:38;95902.69;;;17.71;100.00
10014;BME280;45684;48.358;10.746;2023-07-29T00:12:07;95898.00;;;17.68;100.00
10014;BME280;45684;48.358;10.746;2023-07-29T00:14:35;95897.16;;;17.64;100.00
10014;BME280;45684;48.358;10.746;2023-07-29T00:17:03;95893.19;;;17.62;100.00
10014;BME280;45684;48.358;10.746;2023-07-29T00:19:31;95895.03;;;17.54;100.00
10014;BME280;45684;48.358;10.746;2023-07-29T00:22:01;95895.03;;;17.54;100.00
10014;BME280;45684;48.358;10.746;2023-07-29T00:24:29;95892.31;;;17.54;100.00
10014;BME280;45684;48.358;10.746;2023-07-29T00:26:57;95880.53;;;17.50;100.00
10014;BME280;45684;48.358;10.746;2023-07-29T00:29:26;95884.44;;;17.49;100.00
10014;BME280;45684;48.358;10.746;2023-07-29T00:31:54;95883.19;;;17.46;100.00
10014;BME280;45684;48.358;10.746;2023-07-29T00:34:22;95881.16;;;17.40;100.00
10014;BME280;45684;48.358;10.746;2023-07-29T00:36:50;95880.78;;;17.41;100.00
10014;BME280;45684;48.358;10.746;2023-07-29T00:39:19;95871.69;;;17.33;100.00
10014;BME280;45684;48.358;10.746;2023-07-29T00:41:47;95872.53;;;17.38;100.00
10014;BME280;45684;48.358;10.746;2023-07-29T00:44:15;95871.69;;;17.33;100.00
10014;BME280;45684;48.358;10.746;2023-07-29T00:46:44;95870.88;;;17.33;100.00
10014;BME280;45684;48.358;10.746;2023-07-29T00:49:13;95866.22;;;17.33;100.00
10014;BME280;45684;48.358;10.746;2023-07-29T00:51:41;95866.59;;;17.32;100.00
10014;BME280;45684;48.358;10.746;2023-07-29T00:54:09;95868.84;;;17.26;100.00
10014;BME280;45684;48.358;10.746;2023-07-29T00:56:40;95866.78;;;17.20;100.00
10014;BME280;45684;48.358;10.746;2023-07-29T00:59:08;95863.19;;;17.16;100.00
10014;BME280;45684;48.358;10.746;2023-07-29T01:01:36;95860.41;;;17.12;100.00
10014;BME280;45684;48.358;10.746;2023-07-29T01:04:04;95863.88;;;17.09;100.00
10014;BME280;45684;48.358;10.746;2023-07-29T01:06:40;95862.72;;;17.10;100.00
10014;BME280;45684;48.358;10.746;2023-07-29T01:09:13;95861.22;;;17.13;100.00
10014;BME280;45684;48.358;10.746;2023-07-29T01:11:48;95866.59;;;17.09;100.00
10014;BME280;45684;48.358;10.746;2023-07-29T01:14:29;95861.88;;;17.06;100.00
10014;BME280;45684;48.358;10.746;2023-07-29T01:17:03;95863.47;;;17.07;100.00
10014;BME280;45684;48.358;10.746;2023-07-29T01:19:43;95864.25;;;17.07;100.00
10014;BME280;45684;48.358;10.746;2023-07-29T01:22:16;95858.03;;;17.11;100.00
10014;BME280;45684;48.358;10.746;2023-07-29T01:24:47;95854.09;;;17.08;100.00
10014;BME280;45684;48.358;10.746;2023-07-29T01:27:15;95843.97;;;17.08;100.00
10014;BME280;45684;48.358;10.746;2023-07-29T01:29:42;95848.19;;;17.06;100.00
10014;BME280;45684;48.358;10.746;2023-07-29T01:32:14;95854.41;;;17.03;100.00
10014;BME280;45684;48.358;10.746;2023-07-29T01:34:49;95860.91;;;16.95;100.00
10014;BME280;45684;48.358;10.746;2023-07-29T01:37:22;95858.84;;;16.88;100.00
10014;BME280;45684;48.358;10.746;2023-07-29T01:39:56;95849.38;;;16.82;100.00
10014;BME280;45684;48.358;10.746;2023-07-29T01:42:25;95849.38;;;16.82;100.00
10014;BME280;45684;48.358;10.746;2023-07-29T01:44:56;95849.06;;;16.87;100.00
10014;BME280;45684;48.358;10.746;2023-07-29T01:47:24;95842.50;;;16.92;100.00
10014;BME280;45684;48.358;10.746;2023-07-29T01:49:54;95852.22;;;16.89;100.00
10014;BME280;45684;48.358;10.746;2023-07-29T01:52:22;95843.28;;;16.92;100.00
10014;BME280;45684;48.358;10.746;2023-07-29T01:54:50;95850.69;;;16.92;100.00
10014;BME280;45684;48.358;10.746;2023-07-29T01:57:19;95842.94;;;16.94;100.00
10014;BME280;45684;48.358;10.746;2023-07-29T01:59:47;95843.28;;;16.92;100.00
10014;BME280;45684;48.358;10.746;2023-07-29T02:02:15;95839.06;;;16.95;100.00
10014;BME280;45684;48.358;10.746;2023-07-29T02:04:42;95833.66;;;16.98;100.00
10014;BME280;45684;48.358;10.746;2023-07-29T02:07:11;95837.09;;;16.95;100.00
10014;BME280;45684;48.358;10.746;2023-07-29T02:09:39;95840.75;;;17.03;100.00
10014;BME280;45684;48.358;10.746;2023-07-29T02:12:07;95839.22;;;17.05;100.00
10014;BME280;45684;48.358;10.746;2023-07-29T02:14:39;95829.84;;;17.03;100.00
10014;BME280;45684;48.358;10.746;2023-07-29T02:17:07;95827.41;;;16.98;100.00
10014;BME280;45684;48.358;10.746;2023-07-29T02:19:35;95831.66;;;16.95;100.00
10014;BME280;45684;48.358;10.746;2023-07-29T02:22:03;95829.94;;;16.87;100.00
10014;BME280;45684;48.358;10.746;2023-07-29T02:24:31;95836.19;;;16.88;100.00
10014;BME280;45684;48.358;10.746;2023-07-29T02:26:59;95836.63;;;16.90;100.00
10014;BME280;45684;48.358;10.746;2023-07-29T02:29:27;95831.16;;;16.90;100.00
10014;BME280;45684;48.358;10.746;2023-07-29T02:31:57;95835.78;;;16.86;100.00
10014;BME280;45684;48.358;10.746;2023-07-29T02:34:24;95835.78;;;16.86;100.00
10014;BME280;45684;48.358;10.746;2023-07-29T02:36:52;95832.38;;;16.92;100.00
10014;BME280;45684;48.358;10.746;2023-07-29T02:39:20;95827.41;;;16.98;100.00
10014;BME280;45684;48.358;10.746;2023-07-29T02:41:49;95827.44;;;17.01;100.00
10014;BME280;45684;48.358;10.746;2023-07-29T02:44:18;95834.53;;;17.06;100.00
10014;BME280;45684;48.358;10.746;2023-07-29T02:46:46;95829.03;;;17.02;100.00
10014;BME280;45684;48.358;10.746;2023-07-29T02:49:15;95831.34;;;17.00;100.00
10014;BME280;45684;48.358;10.746;2023-07-29T02:51:43;95823.53;;;16.99;100.00
10014;BME280;45684;48.358;10.746;2023-07-29T02:54:11;95826.97;;;16.96;100.00
10014;BME280;45684;48.358;10.746;2023-07-29T02:56:38;95818.72;;;16.92;100.00
10014;BME280;45684;48.358;10.746;2023-07-29T02:59:06;95818.22;;;16.87;100.00
10014;BME280;45684;48.358;10.746;2023-07-29T03:01:34;95816.59;;;16.82;100.00
10014;BME280;45684;48.358;10.746;2023-07-29T03:04:02;95814.66;;;16.82;100.00
10014;BME280;45684;48.358;10.746;2023-07-29T03:06:32;95822.44;;;16.80;100.00
10014;BME280;45684;48.358;10.746;2023-07-29T03:09:01;95821.59;;;16.76;100.00
10014;BME280;45684;48.358;10.746;2023-07-29T03:11:28;95825.41;;;16.72;100.00
10014;BME280;45684;48.358;10.746;2023-07-29T03:13:57;95822.22;;;16.70;100.00
10014;BME280;45684;48.358;10.746;2023-07-29T03:16:27;95822.16;;;16.66;100.00
10014;BME280;45684;48.358;10.746;2023-07-29T03:18:56;95810.38;;;16.62;100.00
10014;BME280;45684;48.358;10.746;2023-07-29T03:21:24;95812.34;;;16.62;100.00
10014;BME280;45684;48.358;10.746;2023-07-29T03:23:53;95823.56;;;16.56;100.00
10014;BME280;45684;48.358;10.746;2023-07-29T03:26:21;95817.31;;;16.56;100.00
10014;BME280;45684;48.358;10.746;2023-07-29T03:28:49;95814.56;;;16.56;100.00
10014;BME280;45684;48.358;10.746;2023-07-29T03:31:17;95806.38;;;16.56;100.00
10014;BME280;45684;48.358;10.746;2023-07-29T03:33:45;95807.19;;;16.56;100.00
10014;BME280;45684;48.358;10.746;2023-07-29T03:36:13;95802.88;;;16.55;100.00
10014;BME280;45684;48.358;10.746;2023-07-29T03:38:42;95801.72;;;16.56;100.00
10014;BME280;45684;48.358;10.746;2023-07-29T03:41:12;95797.41;;;16.55;100.00
10014;BME280;45684;48.358;10.746;2023-07-29T03:43:40;95802.50;;;16.57;100.00
10014;BME280;45684;48.358;10.746;2023-07-29T03:46:08;95798.63;;;16.58;100.00
10014;BME280;45684;48.358;10.746;2023-07-29T03:48:39;95798.53;;;16.54;100.00
10014;BME280;45684;48.358;10.746;2023-07-29T03:51:07;95790.72;;;16.53;100.00
10014;BME280;45684;48.358;10.746;2023-07-29T03:53:35;95791.81;;;16.48;100.00
10014;BME280;45684;48.358;10.746;2023-07-29T03:56:03;95790.59;;;16.46;100.00
10014;BME280;45684;48.358;10.746;2023-07-29T03:58:33;95795.25;;;16.45;100.00
10014;BME280;45684;48.358;10.746;2023-07-29T04:01:00;95795.22;;;16.42;100.00
10014;BME280;45684;48.358;10.746;2023-07-29T04:03:29;95794.84;;;16.43;100.00
10014;BME280;45684;48.358;10.746;2023-07-29T04:05:57;95784.34;;;16.45;100.00
10014;BME280;45684;48.358;10.746;2023-07-29T04:08:25;95781.69;;;16.49;100.00
10014;BME280;45684;48.358;10.746;2023-07-29T04:10:53;95776.66;;;16.51;100.00
10014;BME280;45684;48.358;10.746;2023-07-29T04:13:21;95786.91;;;16.57;100.00
10014;BME280;45684;48.358;10.746;2023-07-29T04:15:50;95781.06;;;16.59;100.00
10014;BME280;45684;48.358;10.746;2023-07-29T04:18:18;95785.41;;;16.60;100.00
10014;BME280;45684;48.358;10.746;2023-07-29T04:20:47;95780.84;;;16.68;100.00
10014;BME280;45684;48.358;10.746;2023-07-29T04:23:15;95777.47;;;16.74;100.00
10014;BME280;45684;48.358;10.746;2023-07-29T04:25:43;95775.28;;;16.83;100.00
10014;BME280;45684;48.358;10.746;2023-07-29T04:28:11;95767.97;;;16.91;100.00
10014;BME280;45684;48.358;10.746;2023-07-29T04:30:39;95763.41;;;16.99;100.00
10014;BME280;45684;48.358;10.746;2023-07-29T04:33:08;95771.69;;;17.06;100.00
10014;BME280;45684;48.358;10.746;2023-07-29T04:35:36;95766.34;;;17.13;100.00
10014;BME280;45684;48.358;10.746;2023-07-29T04:38:04;95773.97;;;17.27;100.00
10014;BME280;45684;48.358;10.746;2023-07-29T04:40:32;95773.72;;;17.39;100.00
10014;BME280;45684;48.358;10.746;2023-07-29T04:43:01;95776.19;;;17.48;100.00
10014;BME280;45684;48.358;10.746;2023-07-29T04:45:29;95773.66;;;17.62;100.00
10014;BME280;45684;48.358;10.746;2023-07-29T04:47:58;95783.97;;;17.72;100.00
10014;BME280;45684;48.358;10.746;2023-07-29T04:50:27;95776.66;;;17.80;100.00
10014;BME280;45684;48.358;10.746;2023-07-29T04:52:56;95770.94;;;17.92;100.00
10014;BME280;45684;48.358;10.746;2023-07-29T04:55:24;95767.91;;;18.01;100.00
10014;BME280;45684;48.358;10.746;2023-07-29T04:57:52;95766.81;;;18.09;100.00
10014;BME280;45684;48.358;10.746;2023-07-29T05:00:20;95766.56;;;18.21;100.00
10014;BME280;45684;48.358;10.746;2023-07-29T05:02:47;95776.91;;;18.39;100.00
10014;BME280;45684;48.358;10.746;2023-07-29T05:05:15;95777.88;;;18.57;100.00
10014;BME280;45684;48.358;10.746;2023-07-29T05:07:45;95774.91;;;18.73;100.00
10014;BME280;45684;48.358;10.746;2023-07-29T05:10:12;95771.88;;;18.85;100.00
10014;BME280;45684;48.358;10.746;2023-07-29T05:12:40;95764.88;;;18.91;100.00
10014;BME280;45684;48.358;10.746;2023-07-29T05:15:09;95779.06;;;19.04;100.00
10014;BME280;45684;48.358;10.746;2023-07-29T05:17:37;95772.44;;;19.08;100.00
10014;BME280;45684;48.358;10.746;2023-07-29T05:20:07;95772.88;;;19.14;100.00
10014;BME280;45684;48.358;10.746;2023-07-29T05:22:36;95759.59;;;19.20;100.00
10014;BME280;45684;48.358;10.746;2023-07-29T05:25:06;95762.38;;;19.27;100.00
10014;BME280;45684;48.358;10.746;2023-07-29T05:27:34;95764.00;;;19.38;100.00
10014;BME280;45684;48.358;10.746;2023-07-29T05:30:03;95772.28;;;19.46;100.00
10014;BME280;45684;48.358;10.746;2023-07-29T05:32:31;95775.84;;;19.53;100.00
10014;BME280;45684;48.358;10.746;2023-07-29T05:34:59;95774.75;;;19.61;100.00
10014;BME280;45684;48.358;10.746;2023-07-29T05:37:27;95775.53;;;19.62;100.00
10014;BME280;45684;48.358;10.746;2023-07-29T05:39:55;95766.94;;;19.67;100.00
10014;BME280;45684;48.358;10.746;2023-07-29T05:42:24;95758.31;;;19.72;100.00
10014;BME280;45684;48.358;10.746;2023-07-29T05:44:52;95757.97;;;19.77;100.00
10014;BME280;45684;48.358;10.746;2023-07-29T05:47:20;95776.03;;;19.89;100.00
10014;BME280;45684;48.358;10.746;2023-07-29T05:49:48;95776.50;;;20.02;100.00
10014;BME280;45684;48.358;10.746;2023-07-29T05:52:16;95781.59;;;20.07;100.00
10014;BME280;45684;48.358;10.746;2023-07-29T05:54:44;95781.66;;;20.21;100.00
10014;BME280;45684;48.358;10.746;2023-07-29T05:57:12;95784.41;;;20.25;100.00
10014;BME280;45684;48.358;10.746;2023-07-29T05:59:41;95792.63;;;20.18;100.00
10014;BME280;45684;48.358;10.746;2023-07-29T06:02:09;95810.25;;;20.17;100.00
10014;BME280;45684;48.358;10.746;2023-07-29T06:04:37;95821.94;;;19.96;100.00
10014;BME280;45684;48.358;10.746;2023-07-29T06:07:06;95810.09;;;19.81;100.00
10014;BME280;45684;48.358;10.746;2023-07-29T06:09:34;95801.09;;;19.80;100.00
10014;BME280;45684;48.358;10.746;2023-07-29T06:12:03;95808.59;;;19.87;100.00
10014;BME280;45684;48.358;10.746;2023-07-29T06:14:31;95820.31;;;19.84;100.00
10014;BME280;45684;48.358;10.746;2023-07-29T06:17:00;95830.63;;;20.08;100.00
10014;BME280;45684;48.358;10.746;2023-07-29T06:19:28;95840.84;;;20.19;100.00
10014;BME280;45684;48.358;10.746;2023-07-29T06:21:55;95841.25;;;20.10;100.00
10014;BME280;45684;48.358;10.746;2023-07-29T06:24:23;95847.81;;;19.95;100.00
10014;BME280;45684;48.358;10.746;2023-07-29T06:26:51;95851.59;;;19.72;100.00
10014;BME280;45684;48.358;10.746;2023-07-29T06:29:19;95845.31;;;19.65;100.00
10014;BME280;45684;48.358;10.746;2023-07-29T06:31:47;95837.38;;;19.56;100.00
10014;BME280;45684;48.358;10.746;2023-07-29T06:34:16;95814.25;;;19.53;100.00
10014;BME280;45684;48.358;10.746;2023-07-29T06:36:44;95811.94;;;19.59;100.00
10014;BME280;45684;48.358;10.746;2023-07-29T06:39:12;95822.16;;;19.62;100.00
10014;BME280;45684;48.358;10.746;2023-07-29T06:41:39;95821.78;;;19.60;100.00
10014;BME280;45684;48.358;10.746;2023-07-29T06:44:08;95813.19;;;19.69;100.00
10014;BME280;45684;48.358;10.746;2023-07-29T06:46:35;95809.31;;;19.77;100.00
10014;BME280;45684;48.358;10.746;2023-07-29T06:49:05;95792.06;;;19.76;100.00
10014;BME280;45684;48.358;10.746;2023-07-29T06:51:34;95795.59;;;19.77;100.00
10014;BME280;45684;48.358;10.746;2023-07-29T06:54:02;95785.03;;;19.82;100.00
10014;BME280;45684;48.358;10.746;2023-07-29T06:56:30;95788.59;;;19.86;100.00
10014;BME280;45684;48.358;10.746;2023-07-29T06:58:58;95783.56;;;20.06;100.00
10014;BME280;45684;48.358;10.746;2023-07-29T07:01:26;95791.88;;;20.35;100.00
10014;BME280;45684;48.358;10.746;2023-07-29T07:03:54;95796.66;;;20.56;100.00
10014;BME280;45684;48.358;10.746;2023-07-29T07:06:25;95797.84;;;20.66;100.00
10014;BME280;45684;48.358;10.746;2023-07-29T07:08:54;95792.78;;;20.82;100.00
10014;BME280;45684;48.358;10.746;2023-07-29T07:11:22;95790.41;;;21.02;100.00
10014;BME280;45684;48.358;10.746;2023-07-29T07:13:49;95791.59;;;21.22;100.00
10014;BME280;45684;48.358;10.746;2023-07-29T07:16:19;95795.91;;;21.48;100.00
10014;BME280;45684;48.358;10.746;2023-07-29T07:18:47;95786.03;;;21.65;100.00
10014;BME280;45684;48.358;10.746;2023-07-29T07:21:14;95787.50;;;21.91;100.00
10014;BME280;45684;48.358;10.746;2023-07-29T07:23:42;95788.22;;;22.20;100.00
10014;BME280;45684;48.358;10.746;2023-07-29T07:26:11;95792.06;;;22.37;100.00
10014;BME280;45684;48.358;10.746;2023-07-29T07:28:39;95796.00;;;22.36;100.00
10014;BME280;45684;48.358;10.746;2023-07-29T07:31:07;95799.94;;;22.38;100.00
10014;BME280;45684;48.358;10.746;2023-07-29T07:33:35;95807.88;;;22.22;100.00
10014;BME280;45684;48.358;10.746;2023-07-29T07:36:03;95805.09;;;22.29;100.00
10014;BME280;45684;48.358;10.746;2023-07-29T07:38:31;95803.78;;;22.52;100.00
10014;BME280;45684;48.358;10.746;2023-07-29T07:40:59;95812.88;;;22.45;100.00
10014;BME280;45684;48.358;10.746;2023-07-29T07:43:28;95803.41;;;22.50;100.00
10014;BME280;45684;48.358;10.746;2023-07-29T07:46:00;95799.88;;;22.49;100.00
10014;BME280;45684;48.358;10.746;2023-07-29T07:48:28;95807.28;;;22.56;100.00
10014;BME280;45684;48.358;10.746;2023-07-29T07:50:56;95802.13;;;22.61;100.00
10014;BME280;45684;48.358;10.746;2023-07-29T07:53:24;95808.84;;;22.64;100.00
10014;BME280;45684;48.358;10.746;2023-07-29T07:55:53;95799.75;;;22.67;100.00
10014;BME280;45684;48.358;10.746;2023-07-29T07:58:21;95801.25;;;22.75;100.00
10014;BME280;45684;48.358;10.746;2023-07-29T08:00:50;95810.25;;;22.86;100.00
10014;BME280;45684;48.358;10.746;2023-07-29T08:03:18;95805.00;;;23.06;100.00
10014;BME280;45684;48.358;10.746;2023-07-29T08:05:46;95795.47;;;23.18;100.00
10014;BME280;45684;48.358;10.746;2023-07-29T08:08:14;95798.59;;;23.20;100.00
10014;BME280;45684;48.358;10.746;2023-07-29T08:10:42;95799.38;;;23.21;100.00
10014;BME280;45684;48.358;10.746;2023-07-29T08:13:10;95802.53;;;23.23;100.00
10014;BME280;45684;48.358;10.746;2023-07-29T08:15:38;95810.50;;;23.10;100.00
10014;BME280;45684;48.358;10.746;2023-07-29T08:18:07;95813.78;;;22.87;100.00
10014;BME280;45684;48.358;10.746;2023-07-29T08:20:35;95804.44;;;22.74;100.00
10014;BME280;45684;48.358;10.746;2023-07-29T08:23:02;95805.97;;;22.78;100.00
10014;BME280;45684;48.358;10.746;2023-07-29T08:25:30;95791.06;;;22.69;100.00
10014;BME280;45684;48.358;10.746;2023-07-29T08:27:58;95791.75;;;22.87;100.00
10014;BME280;45684;48.358;10.746;2023-07-29T08:30:26;95801.56;;;22.88;100.00
10014;BME280;45684;48.358;10.746;2023-07-29T08:32:54;95793.38;;;22.77;100.00
10014;BME280;45684;48.358;10.746;2023-07-29T08:35:23;95794.19;;;22.74;100.00
10014;BME280;45684;48.358;10.746;2023-07-29T08:37:51;95792.88;;;22.97;100.00
10014;BME280;45684;48.358;10.746;2023-07-29T08:40:22;95802.22;;;23.10;100.00
10014;BME280;45684;48.358;10.746;2023-07-29T08:42:54;95811.13;;;23.32;100.00
10014;BME280;45684;48.358;10.746;2023-07-29T08:45:24;95808.59;;;23.45;100.00
10014;BME280;45684;48.358;10.746;2023-07-29T08:47:54;95800.56;;;23.64;100.00
10014;BME280;45684;48.358;10.746;2023-07-29T08:50:26;95811.25;;;23.97;100.00
10014;BME280;45684;48.358;10.746;2023-07-29T08:52:55;95804.19;;;24.26;100.00
10014;BME280;45684;48.358;10.746;2023-07-29T08:55:24;95806.81;;;24.40;100.00
10014;BME280;45684;48.358;10.746;2023-07-29T08:57:52;95811.91;;;24.42;100.00
10014;BME280;45684;48.358;10.746;2023-07-29T09:00:21;95811.63;;;24.29;100.00
10014;BME280;45684;48.358;10.746;2023-07-29T09:02:49;95810.47;;;24.30;100.00
10014;BME280;45684;48.358;10.746;2023-07-29T09:05:18;95807.22;;;24.66;100.00
10014;BME280;45684;48.358;10.746;2023-07-29T09:07:47;95806.66;;;25.05;100.00
10014;BME280;45684;48.358;10.746;2023-07-29T09:10:21;95807.28;;;25.40;100.00
10014;BME280;45684;48.358;10.746;2023-07-29T09:12:49;95814.72;;;25.66;100.00
10014;BME280;45684;48.358;10.746;2023-07-29T09:15:27;95815.28;;;26.01;100.00
10014;BME280;45684;48.358;10.746;2023-07-29T09:17:55;95818.03;;;26.44;100.00
10014;BME280;45684;48.358;10.746;2023-07-29T09:20:27;95820.88;;;26.77;100.00
10014;BME280;45684;48.358;10.746;2023-07-29T09:22:58;95826.78;;;26.95;100.00
10014;BME280;45684;48.358;10.746;2023-07-29T09:25:27;95814.66;;;27.06;100.00
10014;BME280;45684;48.358;10.746;2023-07-29T09:27:58;95822.63;;;26.87;100.00
10014;BME280;45684;48.358;10.746;2023-07-29T09:30:27;95825.31;;;26.35;100.00
10014;BME280;45684;48.358;10.746;2023-07-29T09:32:55;95825.88;;;25.86;100.00
10014;BME280;45684;48.358;10.746;2023-07-29T09:35:24;95840.00;;;25.92;100.00
10014;BME280;45684;48.358;10.746;2023-07-29T09:37:53;95847.81;;;25.77;100.00
10014;BME280;45684;48.358;10.746;2023-07-29T09:40:22;95844.69;;;25.52;100.00
10014;BME280;45684;48.358;10.746;2023-07-29T09:42:51;95844.75;;;24.94;100.00
10014;BME280;45684;48.358;10.746;2023-07-29T09:45:21;95832.66;;;24.23;100.00
10014;BME280;45684;48.358;10.746;2023-07-29T09:47:49;95820.22;;;23.74;100.00
10014;BME280;45684;48.358;10.746;2023-07-29T09:50:17;95818.47;;;23.01;100.00
10014;BME280;45684;48.358;10.746;2023-07-29T09:52:46;95828.19;;;22.53;100.00
10014;BME280;45684;48.358;10.746;2023-07-29T09:55:17;95831.91;;;22.07;100.00
10014;BME280;45684;48.358;10.746;2023-07-29T09:57:47;95834.31;;;21.95;100.00
10014;BME280;45684;48.358;10.746;2023-07-29T10:00:15;95855.22;;;21.78;100.00
10014;BME280;45684;48.358;10.746;2023-07-29T10:02:44;95858.38;;;21.62;100.00
10014;BME280;45684;48.358;10.746;2023-07-29T10:05:13;95835.59;;;21.22;100.00
10014;BME280;45684;48.358;10.746;2023-07-29T10:07:42;95859.94;;;21.09;100.00
10014;BME280;45684;48.358;10.746;2023-07-29T10:10:10;95823.81;;;20.89;100.00
10014;BME280;45684;48.358;10.746;2023-07-29T10:12:39;95805.72;;;20.74;100.00
10014;BME280;45684;48.358;10.746;2023-07-29T10:15:10;95817.91;;;20.80;100.00
10014;BME280;45684;48.358;10.746;2023-07-29T10:17:39;95821.44;;;21.06;100.00
10014;BME280;45684;48.358;10.746;2023-07-29T10:20:09;95822.59;;;21.26;100.00
10014;BME280;45684;48.358;10.746;2023-07-29T10:22:39;95821.06;;;21.47;100.00
10014;BME280;45684;48.358;10.746;2023-07-29T10:25:08;95832.41;;;21.70;100.00
10014;BME280;45684;48.358;10.746;2023-07-29T10:27:43;95832.38;;;21.81;100.00
10014;BME280;45684;48.358;10.746;2023-07-29T10:30:14;95833.09;;;22.17;100.00
10014;BME280;45684;48.358;10.746;2023-07-29T10:32:43;95834.56;;;22.39;100.00
10014;BME280;45684;48.358;10.746;2023-07-29T10:35:12;95835.28;;;22.51;100.00
10014;BME280;45684;48.358;10.746;2023-07-29T10:37:41;95829.41;;;22.49;100.00
10014;BME280;45684;48.358;10.746;2023-07-29T10:40:10;95816.63;;;22.76;100.00
10014;BME280;45684;48.358;10.746;2023-07-29T10:42:59;95820.94;;;23.36;100.00
10014;BME280;45684;48.358;10.746;2023-07-29T10:45:36;95821.50;;;23.96;100.00
10014;BME280;45684;48.358;10.746;2023-07-29T10:48:10;95819.34;;;24.49;100.00
10014;BME280;45684;48.358;10.746;2023-07-29T10:50:38;95821.84;;;24.93;100.00
10014;BME280;45684;48.358;10.746;2023-07-29T10:53:06;95821.66;;;25.08;100.00
10014;BME280;45684;48.358;10.746;2023-07-29T10:55:35;95819.63;;;25.35;100.00
10014;BME280;45684;48.358;10.746;2023-07-29T10:58:08;95825.09;;;25.39;100.00
10014;BME280;45684;48.358;10.746;2023-07-29T11:00:38;95818.53;;;25.53;100.00
10014;BME280;45684;48.358;10.746;2023-07-29T11:03:07;95816.66;;;25.69;100.00
10014;BME280;45684;48.358;10.746;2023-07-29T11:05:42;95813.78;;;25.97;100.00
10014;BME280;45684;48.358;10.746;2023-07-29T11:08:22;95814.84;;;26.42;100.00
10014;BME280;45684;48.358;10.746;2023-07-29T11:11:07;95814.03;;;26.98;100.00
10014;BME280;45684;48.358;10.746;2023-07-29T11:13:36;95818.31;;;27.35;100.00
10014;BME280;45684;48.358;10.746;2023-07-29T11:16:09;95814.72;;;27.67;100.00
10014;BME280;45684;48.358;10.746;2023-07-29T11:18:38;95807.22;;;27.52;100.00
10014;BME280;45684;48.358;10.746;2023-07-29T11:21:06;95809.19;;;27.02;100.00
10014;BME280;45684;48.358;10.746;2023-07-29T11:23:35;95827.94;;;26.62;100.00
10014;BME280;45684;48.358;10.746;2023-07-29T11:26:04;95823.91;;;26.07;100.00
10014;BME280;45684;48.358;10.746;2023-07-29T11:28:38;95826.09;;;25.72;100.00
10014;BME280;45684;48.358;10.746;2023-07-29T11:31:07;95819.50;;;25.42;100.00
10014;BME280;45684;48.358;10.746;2023-07-29T11:33:38;95813.50;;;25.24;100.00
10014;BME280;45684;48.358;10.746;2023-07-29T11:36:17;95809.69;;;25.38;100.00
10014;BME280;45684;48.358;10.746;2023-07-29T11:38:45;95794.31;;;25.37;100.00
10014;BME280;45684;48.358;10.746;2023-07-29T11:41:19;95793.50;;;25.36;100.00
10014;BME280;45684;48.358;10.746;2023-07-29T11:43:47;95787.81;;;25.24;100.00
10014;BME280;45684;48.358;10.746;2023-07-29T11:46:21;95787.25;;;25.09;100.00
10014;BME280;45684;48.358;10.746;2023-07-29T11:48:48;95782.38;;;24.89;100.00
10014;BME280;45684;48.358;10.746;2023-07-29T11:51:16;95768.13;;;24.67;100.00
10014;BME280;45684;48.358;10.746;2023-07-29T11:53:44;95766.94;;;24.92;100.00
10014;BME280;45684;48.358;10.746;2023-07-29T11:56:12;95763.66;;;25.67;100.00
10014;BME280;45684;48.358;10.746;2023-07-29T11:58:41;95765.19;;;26.12;100.00
10014;BME280;45684;48.358;10.746;2023-07-29T12:01:09;95769.06;;;26.54;100.00
10014;BME280;45684;48.358;10.746;2023-07-29T12:03:43;95763.38;;;26.94;100.00
10014;BME280;45684;48.358;10.746;2023-07-29T12:06:11;95767.81;;;27.24;100.00
10014;BME280;45684;48.358;10.746;2023-07-29T12:08:39;95771.47;;;27.37;100.00
10014;BME280;45684;48.358;10.746;2023-07-29T12:11:08;95771.91;;;27.65;100.00
10014;BME280;45684;48.358;10.746;2023-07-29T12:13:36;95772.81;;;27.91;100.00
10014;BME280;45684;48.358;10.746;2023-07-29T12:16:04;95773.28;;;28.31;100.00
10014;BME280;45684;48.358;10.746;2023-07-29T12:18:33;95778.88;;;28.57;94.15
10014;BME280;45684;48.358;10.746;2023-07-29T12:21:02;95771.66;;;28.72;94.57
10014;BME280;45684;48.358;10.746;2023-07-29T12:23:30;95784.13;;;28.67;89.33
10014;BME280;45684;48.358;10.746;2023-07-29T12:25:59;95784.94;;;29.06;87.45
10014;BME280;45684;48.358;10.746;2023-07-29T12:28:28;95781.47;;;28.89;88.52
10014;BME280;45684;48.358;10.746;2023-07-29T12:30:57;95778.69;;;29.15;87.23
10014;BME280;45684;48.358;10.746;2023-07-29T12:33:32;95782.44;;;29.81;80.18
10014;BME280;45684;48.358;10.746;2023-07-29T12:36:02;95773.56;;;29.61;79.61
10014;BME280;45684;48.358;10.746;2023-07-29T12:38:30;95766.03;;;29.48;85.05
10014;BME280;45684;48.358;10.746;2023-07-29T12:40:58;95772.19;;;29.78;81.32
10014;BME280;45684;48.358;10.746;2023-07-29T12:43:26;95768.44;;;30.16;73.78
10014;BME280;45684;48.358;10.746;2023-07-29T12:45:54;95768.91;;;30.36;74.63
10014;BME280;45684;48.358;10.746;2023-07-29T12:48:22;95763.16;;;30.40;71.49
10014;BME280;45684;48.358;10.746;2023-07-29T12:50:49;95757.59;;;30.40;73.12